Providence, Rhode Island
Traffic Map
Current Weather Conditions
Providence, Rhode Island
Few Clouds
Few Clouds
29°
Feels Like: 30°
Wind Chill: 29° Ceiling: Unl
Heat Index: 30° Visibility: 10mi
Dew Point: 18° Wind: 12mph
Humidity: 51% Direction: 220° (SW)
Pressure: 29.9in Gusts: 0mph
Raw Report DataKPVD 272051Z 22010KT 10SM FEW050 FEW160 29/18 A2990 RMK AO2 SLP122 T02940183 56013
Traffic Incident Summary
Active as of:
Severity:
Category:
InformationThere was an issue retrieving the traffic information for this location. Please try a different location or try again shortly.
Advertisements
Track Severe Weather on mobile